sensor_id;sensor_type;location;lat;lon;timestamp;temperature;humidity
48920;DHT22;34730;50.894;6.052;2022-07-06T00:00:09;13.30;99.90
48920;DHT22;34730;50.894;6.052;2022-07-06T00:00:45;13.30;99.90
48920;DHT22;34730;50.894;6.052;2022-07-06T00:01:15;13.30;99.90
48920;DHT22;34730;50.894;6.052;2022-07-06T00:01:47;13.30;99.90
48920;DHT22;34730;50.894;6.052;2022-07-06T00:02:18;13.30;99.90
48920;DHT22;34730;50.894;6.052;2022-07-06T00:02:49;13.30;99.90
48920;DHT22;34730;50.894;6.052;2022-07-06T00:03:19;13.30;99.90
48920;DHT22;34730;50.894;6.052;2022-07-06T00:03:50;13.20;99.90
48920;DHT22;34730;50.894;6.052;2022-07-06T00:04:22;13.20;99.90
48920;DHT22;34730;50.894;6.052;2022-07-06T00:04:53;13.20;99.90
48920;DHT22;34730;50.894;6.052;2022-07-06T00:05:24;13.20;99.90
48920;DHT22;34730;50.894;6.052;2022-07-06T00:05:56;13.20;99.90
48920;DHT22;34730;50.894;6.052;2022-07-06T00:06:27;13.20;99.90
48920;DHT22;34730;50.894;6.052;2022-07-06T00:06:58;13.20;99.90
48920;DHT22;34730;50.894;6.052;2022-07-06T00:07:29;13.20;99.90
48920;DHT22;34730;50.894;6.052;2022-07-06T00:08:03;13.20;99.90
48920;DHT22;34730;50.894;6.052;2022-07-06T00:08:34;13.10;99.90
48920;DHT22;34730;50.894;6.052;2022-07-06T00:09:05;13.10;99.90
48920;DHT22;34730;50.894;6.052;2022-07-06T00:09:36;13.10;99.90
48920;DHT22;34730;50.894;6.052;2022-07-06T00:10:09;13.10;99.90
48920;DHT22;34730;50.894;6.052;2022-07-06T00:10:40;13.10;99.90
48920;DHT22;34730;50.894;6.052;2022-07-06T00:11:11;13.10;99.90
48920;DHT22;34730;50.894;6.052;2022-07-06T00:11:42;13.00;99.90
48920;DHT22;34730;50.894;6.052;2022-07-06T00:12:13;13.00;99.90
48920;DHT22;34730;50.894;6.052;2022-07-06T00:12:44;13.00;99.90
48920;DHT22;34730;50.894;6.052;2022-07-06T00:13:15;13.00;99.90
48920;DHT22;34730;50.894;6.052;2022-07-06T00:13:46;13.00;99.90
48920;DHT22;34730;50.894;6.052;2022-07-06T00:14:17;13.00;99.90
48920;DHT22;34730;50.894;6.052;2022-07-06T00:14:47;12.90;99.90
48920;DHT22;34730;50.894;6.052;2022-07-06T00:15:18;12.90;99.90
48920;DHT22;34730;50.894;6.052;2022-07-06T00:15:50;12.90;99.90
48920;DHT22;34730;50.894;6.052;2022-07-06T00:16:21;12.90;99.90
48920;DHT22;34730;50.894;6.052;2022-07-06T00:16:52;12.90;99.90
48920;DHT22;34730;50.894;6.052;2022-07-06T00:17:25;12.90;99.90
48920;DHT22;34730;50.894;6.052;2022-07-06T00:17:56;12.90;99.90
48920;DHT22;34730;50.894;6.052;2022-07-06T00:18:27;12.90;99.90
48920;DHT22;34730;50.894;6.052;2022-07-06T00:18:58;12.90;99.90
48920;DHT22;34730;50.894;6.052;2022-07-06T00:19:30;12.80;99.90
48920;DHT22;34730;50.894;6.052;2022-07-06T00:20:01;12.90;99.90
48920;DHT22;34730;50.894;6.052;2022-07-06T00:20:32;12.90;99.90
48920;DHT22;34730;50.894;6.052;2022-07-06T00:21:05;12.80;99.90
48920;DHT22;34730;50.894;6.052;2022-07-06T00:21:36;12.80;99.90
48920;DHT22;34730;50.894;6.052;2022-07-06T00:22:07;12.80;99.90
48920;DHT22;34730;50.894;6.052;2022-07-06T00:22:38;12.80;99.90
48920;DHT22;34730;50.894;6.052;2022-07-06T00:23:09;12.80;99.90
48920;DHT22;34730;50.894;6.052;2022-07-06T00:23:41;12.80;99.90
48920;DHT22;34730;50.894;6.052;2022-07-06T00:24:15;12.70;99.90
48920;DHT22;34730;50.894;6.052;2022-07-06T00:24:48;12.70;99.90
48920;DHT22;34730;50.894;6.052;2022-07-06T00:25:19;12.70;99.90
48920;DHT22;34730;50.894;6.052;2022-07-06T00:25:50;12.70;99.90
48920;DHT22;34730;50.894;6.052;2022-07-06T00:26:23;12.70;99.90
48920;DHT22;34730;50.894;6.052;2022-07-06T00:26:56;12.60;99.90
48920;DHT22;34730;50.894;6.052;2022-07-06T00:27:26;12.60;99.90
48920;DHT22;34730;50.894;6.052;2022-07-06T00:27:57;12.60;99.90
48920;DHT22;34730;50.894;6.052;2022-07-06T00:28:29;12.60;99.90
48920;DHT22;34730;50.894;6.052;2022-07-06T00:28:59;12.60;99.90
48920;DHT22;34730;50.894;6.052;2022-07-06T00:29:33;12.60;99.90
48920;DHT22;34730;50.894;6.052;2022-07-06T00:30:04;12.60;99.90
48920;DHT22;34730;50.894;6.052;2022-07-06T00:30:35;12.60;99.90
48920;DHT22;34730;50.894;6.052;2022-07-06T00:31:06;12.60;99.90
48920;DHT22;34730;50.894;6.052;2022-07-06T00:31:37;12.50;99.90
48920;DHT22;34730;50.894;6.052;2022-07-06T00:32:08;12.50;99.90
48920;DHT22;34730;50.894;6.052;2022-07-06T00:32:38;12.50;99.90
48920;DHT22;34730;50.894;6.052;2022-07-06T00:33:09;12.50;99.90
48920;DHT22;34730;50.894;6.052;2022-07-06T00:33:40;12.50;99.90
48920;DHT22;34730;50.894;6.052;2022-07-06T00:34:16;12.40;99.90
48920;DHT22;34730;50.894;6.052;2022-07-06T00:34:47;12.40;99.90
48920;DHT22;34730;50.894;6.052;2022-07-06T00:35:18;12.40;99.90
48920;DHT22;34730;50.894;6.052;2022-07-06T00:35:48;12.40;99.90
48920;DHT22;34730;50.894;6.052;2022-07-06T00:36:19;12.40;99.90
48920;DHT22;34730;50.894;6.052;2022-07-06T00:36:50;12.40;99.90
48920;DHT22;34730;50.894;6.052;2022-07-06T00:37:21;12.40;99.90
48920;DHT22;34730;50.894;6.052;2022-07-06T00:37:52;12.40;99.90
48920;DHT22;34730;50.894;6.052;2022-07-06T00:38:23;12.40;99.90
48920;DHT22;34730;50.894;6.052;2022-07-06T00:38:53;12.30;99.90
48920;DHT22;34730;50.894;6.052;2022-07-06T00:39:25;12.30;99.90
48920;DHT22;34730;50.894;6.052;2022-07-06T00:39:59;12.30;99.90
48920;DHT22;34730;50.894;6.052;2022-07-06T00:40:30;12.30;99.90
48920;DHT22;34730;50.894;6.052;2022-07-06T00:41:01;12.30;99.90
48920;DHT22;34730;50.894;6.052;2022-07-06T00:41:32;12.20;99.90
48920;DHT22;34730;50.894;6.052;2022-07-06T00:42:03;12.30;99.90
48920;DHT22;34730;50.894;6.052;2022-07-06T00:42:45;12.20;99.90
48920;DHT22;34730;50.894;6.052;2022-07-06T00:43:17;12.20;99.90
48920;DHT22;34730;50.894;6.052;2022-07-06T00:43:57;12.20;99.90
48920;DHT22;34730;50.894;6.052;2022-07-06T00:44:28;12.20;99.90
48920;DHT22;34730;50.894;6.052;2022-07-06T00:44:59;12.20;99.90
48920;DHT22;34730;50.894;6.052;2022-07-06T00:45:31;12.20;99.90
48920;DHT22;34730;50.894;6.052;2022-07-06T00:46:01;12.20;99.90
48920;DHT22;34730;50.894;6.052;2022-07-06T00:46:32;12.20;99.90
48920;DHT22;34730;50.894;6.052;2022-07-06T00:47:03;12.20;99.90
48920;DHT22;34730;50.894;6.052;2022-07-06T00:47:34;12.20;99.90
48920;DHT22;34730;50.894;6.052;2022-07-06T00:48:08;12.10;99.90
48920;DHT22;34730;50.894;6.052;2022-07-06T00:48:39;12.20;99.90
48920;DHT22;34730;50.894;6.052;2022-07-06T00:49:09;12.20;99.90
48920;DHT22;34730;50.894;6.052;2022-07-06T00:50:01;12.10;99.90
48920;DHT22;34730;50.894;6.052;2022-07-06T00:50:46;12.10;99.90
48920;DHT22;34730;50.894;6.052;2022-07-06T00:51:17;12.10;99.90
48920;DHT22;34730;50.894;6.052;2022-07-06T00:51:48;12.10;99.90
48920;DHT22;34730;50.894;6.052;2022-07-06T00:52:19;12.10;99.90
48920;DHT22;34730;50.894;6.052;2022-07-06T00:52:53;12.10;99.90
48920;DHT22;34730;50.894;6.052;2022-07-06T00:53:24;12.10;99.90
48920;DHT22;34730;50.894;6.052;2022-07-06T00:53:58;12.10;99.90
48920;DHT22;34730;50.894;6.052;2022-07-06T00:54:31;12.10;99.90
48920;DHT22;34730;50.894;6.052;2022-07-06T00:55:03;12.10;99.90
48920;DHT22;34730;50.894;6.052;2022-07-06T00:55:36;12.10;99.90
48920;DHT22;34730;50.894;6.052;2022-07-06T00:56:08;12.10;99.90
48920;DHT22;34730;50.894;6.052;2022-07-06T00:56:40;12.00;99.90
48920;DHT22;34730;50.894;6.052;2022-07-06T00:57:11;12.00;99.90
48920;DHT22;34730;50.894;6.052;2022-07-06T00:57:42;12.00;99.90
48920;DHT22;34730;50.894;6.052;2022-07-06T00:58:13;12.00;99.90
48920;DHT22;34730;50.894;6.052;2022-07-06T00:58:44;12.00;99.90
48920;DHT22;34730;50.894;6.052;2022-07-06T00:59:15;12.00;99.90
48920;DHT22;34730;50.894;6.052;2022-07-06T00:59:46;12.00;99.90
48920;DHT22;34730;50.894;6.052;2022-07-06T01:00:19;12.00;99.90
48920;DHT22;34730;50.894;6.052;2022-07-06T01:00:50;12.00;99.90
48920;DHT22;34730;50.894;6.052;2022-07-06T01:01:21;12.00;99.90
48920;DHT22;34730;50.894;6.052;2022-07-06T01:01:52;11.90;99.90
48920;DHT22;34730;50.894;6.052;2022-07-06T01:02:23;11.90;99.90
48920;DHT22;34730;50.894;6.052;2022-07-06T01:02:55;11.90;99.90
48920;DHT22;34730;50.894;6.052;2022-07-06T01:03:28;11.90;99.90
48920;DHT22;34730;50.894;6.052;2022-07-06T01:04:01;11.90;99.90
48920;DHT22;34730;50.894;6.052;2022-07-06T01:04:32;11.90;99.90
48920;DHT22;34730;50.894;6.052;2022-07-06T01:05:06;11.90;99.90
48920;DHT22;34730;50.894;6.052;2022-07-06T01:05:37;11.80;99.90
48920;DHT22;34730;50.894;6.052;2022-07-06T01:06:09;11.80;99.90
48920;DHT22;34730;50.894;6.052;2022-07-06T01:06:41;11.80;99.90
48920;DHT22;34730;50.894;6.052;2022-07-06T01:07:12;11.80;99.90
48920;DHT22;34730;50.894;6.052;2022-07-06T01:07:44;11.70;99.90
48920;DHT22;34730;50.894;6.052;2022-07-06T01:08:16;11.80;99.90
48920;DHT22;34730;50.894;6.052;2022-07-06T01:08:49;11.80;99.90
48920;DHT22;34730;50.894;6.052;2022-07-06T01:09:20;11.80;99.90
48920;DHT22;34730;50.894;6.052;2022-07-06T01:09:51;11.80;99.90
48920;DHT22;34730;50.894;6.052;2022-07-06T01:10:22;11.80;99.90
48920;DHT22;34730;50.894;6.052;2022-07-06T01:10:53;11.70;99.90
48920;DHT22;34730;50.894;6.052;2022-07-06T01:11:24;11.80;99.90
48920;DHT22;34730;50.894;6.052;2022-07-06T01:11:57;11.70;99.90
48920;DHT22;34730;50.894;6.052;2022-07-06T01:12:32;11.70;99.90
48920;DHT22;34730;50.894;6.052;2022-07-06T01:13:04;11.70;99.90
48920;DHT22;34730;50.894;6.052;2022-07-06T01:13:35;11.70;99.90
48920;DHT22;34730;50.894;6.052;2022-07-06T01:14:06;11.70;99.90
48920;DHT22;34730;50.894;6.052;2022-07-06T01:14:40;11.70;99.90
48920;DHT22;34730;50.894;6.052;2022-07-06T01:15:24;11.70;99.90
48920;DHT22;34730;50.894;6.052;2022-07-06T01:15:56;11.70;99.90
48920;DHT22;34730;50.894;6.052;2022-07-06T01:16:27;11.70;99.90
48920;DHT22;34730;50.894;6.052;2022-07-06T01:16:58;11.60;99.90
48920;DHT22;34730;50.894;6.052;2022-07-06T01:17:29;11.60;99.90
48920;DHT22;34730;50.894;6.052;2022-07-06T01:18:01;11.60;99.90
48920;DHT22;34730;50.894;6.052;2022-07-06T01:18:35;11.60;99.90
48920;DHT22;34730;50.894;6.052;2022-07-06T01:19:09;11.60;99.90
48920;DHT22;34730;50.894;6.052;2022-07-06T01:19:41;11.50;99.90
48920;DHT22;34730;50.894;6.052;2022-07-06T01:20:22;11.50;99.90
48920;DHT22;34730;50.894;6.052;2022-07-06T01:21:04;11.50;99.90
48920;DHT22;34730;50.894;6.052;2022-07-06T01:21:37;11.50;99.90
48920;DHT22;34730;50.894;6.052;2022-07-06T01:22:11;11.50;99.90
48920;DHT22;34730;50.894;6.052;2022-07-06T01:22:43;11.40;99.90
48920;DHT22;34730;50.894;6.052;2022-07-06T01:23:15;11.50;99.90
48920;DHT22;34730;50.894;6.052;2022-07-06T01:23:47;11.40;99.90
48920;DHT22;34730;50.894;6.052;2022-07-06T01:24:18;11.40;99.90
48920;DHT22;34730;50.894;6.052;2022-07-06T01:24:49;11.40;99.90
48920;DHT22;34730;50.894;6.052;2022-07-06T01:25:21;11.40;99.90
48920;DHT22;34730;50.894;6.052;2022-07-06T01:25:55;11.40;99.90
48920;DHT22;34730;50.894;6.052;2022-07-06T01:26:27;11.40;99.90
48920;DHT22;34730;50.894;6.052;2022-07-06T01:26:59;11.40;99.90
48920;DHT22;34730;50.894;6.052;2022-07-06T01:27:30;11.40;99.90
48920;DHT22;34730;50.894;6.052;2022-07-06T01:28:04;11.40;99.90
48920;DHT22;34730;50.894;6.052;2022-07-06T01:28:37;11.40;99.90
48920;DHT22;34730;50.894;6.052;2022-07-06T01:29:11;11.30;99.90
48920;DHT22;34730;50.894;6.052;2022-07-06T01:29:41;11.40;99.90
48920;DHT22;34730;50.894;6.052;2022-07-06T01:30:16;11.40;99.90
48920;DHT22;34730;50.894;6.052;2022-07-06T01:30:47;11.40;99.90
48920;DHT22;34730;50.894;6.052;2022-07-06T01:31:24;11.40;99.90
48920;DHT22;34730;50.894;6.052;2022-07-06T01:31:55;11.30;99.90
48920;DHT22;34730;50.894;6.052;2022-07-06T01:32:30;11.30;99.90
48920;DHT22;34730;50.894;6.052;2022-07-06T01:33:01;11.30;99.90
48920;DHT22;34730;50.894;6.052;2022-07-06T01:33:31;11.30;99.90
48920;DHT22;34730;50.894;6.052;2022-07-06T01:34:02;11.30;99.90
48920;DHT22;34730;50.894;6.052;2022-07-06T01:34:34;11.30;99.90
48920;DHT22;34730;50.894;6.052;2022-07-06T01:35:07;11.30;99.90
48920;DHT22;34730;50.894;6.052;2022-07-06T01:35:38;11.30;99.90
48920;DHT22;34730;50.894;6.052;2022-07-06T01:36:10;11.30;99.90
48920;DHT22;34730;50.894;6.052;2022-07-06T01:36:41;11.30;99.90
48920;DHT22;34730;50.894;6.052;2022-07-06T01:37:12;11.30;99.90
48920;DHT22;34730;50.894;6.052;2022-07-06T01:37:43;11.30;99.90
48920;DHT22;34730;50.894;6.052;2022-07-06T01:38:15;11.30;99.90
48920;DHT22;34730;50.894;6.052;2022-07-06T01:38:53;11.30;99.90
48920;DHT22;34730;50.894;6.052;2022-07-06T01:39:25;11.30;99.90
48920;DHT22;34730;50.894;6.052;2022-07-06T01:39:59;11.30;99.90
48920;DHT22;34730;50.894;6.052;2022-07-06T01:40:30;11.30;99.90
48920;DHT22;34730;50.894;6.052;2022-07-06T01:41:05;11.30;99.90
48920;DHT22;34730;50.894;6.052;2022-07-06T01:41:36;11.30;99.90
48920;DHT22;34730;50.894;6.052;2022-07-06T01:42:07;11.30;99.90
48920;DHT22;34730;50.894;6.052;2022-07-06T01:42:38;11.30;99.90
48920;DHT22;34730;50.894;6.052;2022-07-06T01:43:09;11.30;99.90
48920;DHT22;34730;50.894;6.052;2022-07-06T01:43:41;11.30;99.90
48920;DHT22;34730;50.894;6.052;2022-07-06T01:44:11;11.20;99.90
48920;DHT22;34730;50.894;6.052;2022-07-06T01:44:43;11.20;99.90
48920;DHT22;34730;50.894;6.052;2022-07-06T01:45:16;11.20;99.90
48920;DHT22;34730;50.894;6.052;2022-07-06T01:45:47;11.20;99.90
48920;DHT22;34730;50.894;6.052;2022-07-06T01:46:18;11.20;99.90
48920;DHT22;34730;50.894;6.052;2022-07-06T01:46:50;11.20;99.90
48920;DHT22;34730;50.894;6.052;2022-07-06T01:47:21;11.20;99.90
48920;DHT22;34730;50.894;6.052;2022-07-06T01:47:54;11.20;99.90
48920;DHT22;34730;50.894;6.052;2022-07-06T01:48:26;11.20;99.90
48920;DHT22;34730;50.894;6.052;2022-07-06T01:48:57;11.20;99.90
48920;DHT22;34730;50.894;6.052;2022-07-06T01:49:28;11.20;99.90
48920;DHT22;34730;50.894;6.052;2022-07-06T01:50:01;11.20;99.90
48920;DHT22;34730;50.894;6.052;2022-07-06T01:50:37;11.20;99.90
48920;DHT22;34730;50.894;6.052;2022-07-06T01:51:08;11.20;99.90
48920;DHT22;34730;50.894;6.052;2022-07-06T01:51:40;11.20;99.90
48920;DHT22;34730;50.894;6.052;2022-07-06T01:52:12;11.20;99.90
48920;DHT22;34730;50.894;6.052;2022-07-06T01:52:43;11.20;99.90
48920;DHT22;34730;50.894;6.052;2022-07-06T01:53:17;11.20;99.90
48920;DHT22;34730;50.894;6.052;2022-07-06T01:53:49;11.20;99.90
48920;DHT22;34730;50.894;6.052;2022-07-06T01:54:22;11.20;99.90
48920;DHT22;34730;50.894;6.052;2022-07-06T01:54:54;11.20;99.90
48920;DHT22;34730;50.894;6.052;2022-07-06T01:55:25;11.20;99.90
48920;DHT22;34730;50.894;6.052;2022-07-06T01:55:58;11.20;99.90
48920;DHT22;34730;50.894;6.052;2022-07-06T01:56:29;11.20;99.90
48920;DHT22;34730;50.894;6.052;2022-07-06T01:57:04;11.20;99.90
48920;DHT22;34730;50.894;6.052;2022-07-06T01:57:35;11.20;99.90
48920;DHT22;34730;50.894;6.052;2022-07-06T01:58:06;11.10;99.90
48920;DHT22;34730;50.894;6.052;2022-07-06T01:58:38;11.20;99.90
48920;DHT22;34730;50.894;6.052;2022-07-06T01:59:09;11.10;99.90
48920;DHT22;34730;50.894;6.052;2022-07-06T01:59:42;11.10;99.90
48920;DHT22;34730;50.894;6.052;2022-07-06T02:00:13;11.10;99.90
48920;DHT22;34730;50.894;6.052;2022-07-06T02:00:45;11.10;99.90
48920;DHT22;34730;50.894;6.052;2022-07-06T02:01:18;11.10;99.90
48920;DHT22;34730;50.894;6.052;2022-07-06T02:01:49;11.10;99.90
48920;DHT22;34730;50.894;6.052;2022-07-06T02:02:20;11.10;99.90
48920;DHT22;34730;50.894;6.052;2022-07-06T02:02:51;11.10;99.90
48920;DHT22;34730;50.894;6.052;2022-07-06T02:03:22;11.10;99.90
48920;DHT22;34730;50.894;6.052;2022-07-06T02:03:53;11.10;99.90
48920;DHT22;34730;50.894;6.052;2022-07-06T02:04:26;11.10;99.90
48920;DHT22;34730;50.894;6.052;2022-07-06T02:04:57;11.10;99.90
48920;DHT22;34730;50.894;6.052;2022-07-06T02:05:28;11.00;99.90
48920;DHT22;34730;50.894;6.052;2022-07-06T02:05:58;11.00;99.90
48920;DHT22;34730;50.894;6.052;2022-07-06T02:06:30;11.00;99.90
48920;DHT22;34730;50.894;6.052;2022-07-06T02:07:01;11.00;99.90
48920;DHT22;34730;50.894;6.052;2022-07-06T02:07:33;11.00;99.90
48920;DHT22;34730;50.894;6.052;2022-07-06T02:08:08;11.00;99.90
48920;DHT22;34730;50.894;6.052;2022-07-06T02:08:40;10.90;99.90
48920;DHT22;34730;50.894;6.052;2022-07-06T02:09:11;10.90;99.90
48920;DHT22;34730;50.894;6.052;2022-07-06T02:09:42;10.90;99.90
48920;DHT22;34730;50.894;6.052;2022-07-06T02:10:12;10.90;99.90
48920;DHT22;34730;50.894;6.052;2022-07-06T02:10:43;10.90;99.90
48920;DHT22;34730;50.894;6.052;2022-07-06T02:11:14;10.90;99.90
48920;DHT22;34730;50.894;6.052;2022-07-06T02:11:47;10.90;99.90
48920;DHT22;34730;50.894;6.052;2022-07-06T02:12:20;10.90;99.90
48920;DHT22;34730;50.894;6.052;2022-07-06T02:12:52;10.90;99.90
48920;DHT22;34730;50.894;6.052;2022-07-06T02:13:23;10.90;99.90
48920;DHT22;34730;50.894;6.052;2022-07-06T02:13:54;10.90;99.90
48920;DHT22;34730;50.894;6.052;2022-07-06T02:14:25;10.90;99.90
48920;DHT22;34730;50.894;6.052;2022-07-06T02:14:56;10.90;99.90
48920;DHT22;34730;50.894;6.052;2022-07-06T02:15:29;10.90;99.90
48920;DHT22;34730;50.894;6.052;2022-07-06T02:16:00;10.80;99.90
48920;DHT22;34730;50.894;6.052;2022-07-06T02:16:32;10.80;99.90
48920;DHT22;34730;50.894;6.052;2022-07-06T02:17:03;10.80;99.90
48920;DHT22;34730;50.894;6.052;2022-07-06T02:17:34;10.80;99.90
48920;DHT22;34730;50.894;6.052;2022-07-06T02:18:04;10.80;99.90
48920;DHT22;34730;50.894;6.052;2022-07-06T02:18:36;10.80;99.90
48920;DHT22;34730;50.894;6.052;2022-07-06T02:19:07;10.90;99.90
48920;DHT22;34730;50.894;6.052;2022-07-06T02:19:41;10.80;99.90
48920;DHT22;34730;50.894;6.052;2022-07-06T02:20:12;10.80;99.90
48920;DHT22;34730;50.894;6.052;2022-07-06T02:20:43;10.80;99.90
48920;DHT22;34730;50.894;6.052;2022-07-06T02:21:15;10.80;99.90
48920;DHT22;34730;50.894;6.052;2022-07-06T02:21:48;10.80;99.90
48920;DHT22;34730;50.894;6.052;2022-07-06T02:22:20;10.80;99.90
48920;DHT22;34730;50.894;6.052;2022-07-06T02:22:51;10.80;99.90
48920;DHT22;34730;50.894;6.052;2022-07-06T02:23:22;10.80;99.90
48920;DHT22;34730;50.894;6.052;2022-07-06T02:23:55;10.80;99.90
48920;DHT22;34730;50.894;6.052;2022-07-06T02:24:26;10.70;99.90
48920;DHT22;34730;50.894;6.052;2022-07-06T02:24:58;10.70;99.90
48920;DHT22;34730;50.894;6.052;2022-07-06T02:25:29;10.70;99.90
48920;DHT22;34730;50.894;6.052;2022-07-06T02:26:01;10.70;99.90
48920;DHT22;34730;50.894;6.052;2022-07-06T02:26:31;10.70;99.90
48920;DHT22;34730;50.894;6.052;2022-07-06T02:27:03;10.70;99.90
48920;DHT22;34730;50.894;6.052;2022-07-06T02:27:34;10.70;99.90
48920;DHT22;34730;50.894;6.052;2022-07-06T02:28:08;10.70;99.90
48920;DHT22;34730;50.894;6.052;2022-07-06T02:28:39;10.70;99.90
48920;DHT22;34730;50.894;6.052;2022-07-06T02:29:10;10.60;99.90
48920;DHT22;34730;50.894;6.052;2022-07-06T02:29:42;10.60;99.90
48920;DHT22;34730;50.894;6.052;2022-07-06T02:30:16;10.70;99.90
48920;DHT22;34730;50.894;6.052;2022-07-06T02:30:46;10.60;99.90
48920;DHT22;34730;50.894;6.052;2022-07-06T02:31:19;10.60;99.90
48920;DHT22;34730;50.894;6.052;2022-07-06T02:31:54;10.60;99.90
48920;DHT22;34730;50.894;6.052;2022-07-06T02:32:28;10.60;99.90
48920;DHT22;34730;50.894;6.052;2022-07-06T02:32:59;10.50;99.90
48920;DHT22;34730;50.894;6.052;2022-07-06T02:33:29;10.50;99.90
48920;DHT22;34730;50.894;6.052;2022-07-06T02:34:00;10.50;99.90
48920;DHT22;34730;50.894;6.052;2022-07-06T02:34:31;10.50;99.90
48920;DHT22;34730;50.894;6.052;2022-07-06T02:35:02;10.50;99.90
48920;DHT22;34730;50.894;6.052;2022-07-06T02:35:33;10.50;99.90
48920;DHT22;34730;50.894;6.052;2022-07-06T02:36:05;10.50;99.90
48920;DHT22;34730;50.894;6.052;2022-07-06T02:36:36;10.50;99.90
48920;DHT22;34730;50.894;6.052;2022-07-06T02:37:07;10.50;99.90
48920;DHT22;34730;50.894;6.052;2022-07-06T02:37:38;10.50;99.90
48920;DHT22;34730;50.894;6.052;2022-07-06T02:38:10;10.40;99.90
48920;DHT22;34730;50.894;6.052;2022-07-06T02:38:41;10.40;99.90
48920;DHT22;34730;50.894;6.052;2022-07-06T02:39:12;10.40;99.90
48920;DHT22;34730;50.894;6.052;2022-07-06T02:39:45;10.40;99.90
48920;DHT22;34730;50.894;6.052;2022-07-06T02:40:16;10.40;99.90
48920;DHT22;34730;50.894;6.052;2022-07-06T02:40:47;10.40;99.90
48920;DHT22;34730;50.894;6.052;2022-07-06T02:41:18;10.40;99.90
48920;DHT22;34730;50.894;6.052;2022-07-06T02:41:48;10.40;99.90
48920;DHT22;34730;50.894;6.052;2022-07-06T02:42:19;10.40;99.90
48920;DHT22;34730;50.894;6.052;2022-07-06T02:42:50;10.40;99.90
48920;DHT22;34730;50.894;6.052;2022-07-06T02:43:22;10.40;99.90
48920;DHT22;34730;50.894;6.052;2022-07-06T02:43:54;10.40;99.90
48920;DHT22;34730;50.894;6.052;2022-07-06T02:44:25;10.40;99.90
48920;DHT22;34730;50.894;6.052;2022-07-06T02:44:56;10.40;99.90
48920;DHT22;34730;50.894;6.052;2022-07-06T02:45:30;10.40;99.90
48920;DHT22;34730;50.894;6.052;2022-07-06T02:46:01;10.40;99.90
48920;DHT22;34730;50.894;6.052;2022-07-06T02:46:35;10.40;99.90
48920;DHT22;34730;50.894;6.052;2022-07-06T02:47:06;10.40;99.90
48920;DHT22;34730;50.894;6.052;2022-07-06T02:47:37;10.40;99.90
48920;DHT22;34730;50.894;6.052;2022-07-06T02:48:09;10.40;99.90
48920;DHT22;34730;50.894;6.052;2022-07-06T02:48:40;10.40;99.90
48920;DHT22;34730;50.894;6.052;2022-07-06T02:49:11;10.40;99.90
48920;DHT22;34730;50.894;6.052;2022-07-06T02:49:42;10.40;99.90
48920;DHT22;34730;50.894;6.052;2022-07-06T02:50:13;10.40;99.90
48920;DHT22;34730;50.894;6.052;2022-07-06T02:50:44;10.40;99.90
48920;DHT22;34730;50.894;6.052;2022-07-06T02:51:18;10.40;99.90
48920;DHT22;34730;50.894;6.052;2022-07-06T02:51:49;10.40;99.90
48920;DHT22;34730;50.894;6.052;2022-07-06T02:52:20;10.40;99.90
48920;DHT22;34730;50.894;6.052;2022-07-06T02:52:51;10.30;99.90
48920;DHT22;34730;50.894;6.052;2022-07-06T02:53:25;10.30;99.90
48920;DHT22;34730;50.894;6.052;2022-07-06T02:53:58;10.30;99.90
48920;DHT22;34730;50.894;6.052;2022-07-06T02:54:28;10.30;99.90
48920;DHT22;34730;50.894;6.052;2022-07-06T02:54:59;10.30;99.90
48920;DHT22;34730;50.894;6.052;2022-07-06T02:55:30;10.30;99.90
48920;DHT22;34730;50.894;6.052;2022-07-06T02:56:02;10.30;99.90
48920;DHT22;34730;50.894;6.052;2022-07-06T02:56:33;10.30;99.90
48920;DHT22;34730;50.894;6.052;2022-07-06T02:57:04;10.30;99.90
48920;DHT22;34730;50.894;6.052;2022-07-06T02:57:35;10.30;99.90
48920;DHT22;34730;50.894;6.052;2022-07-06T02:58:08;10.30;99.90
48920;DHT22;34730;50.894;6.052;2022-07-06T02:58:39;10.20;99.90
48920;DHT22;34730;50.894;6.052;2022-07-06T02:59:10;10.20;99.90
48920;DHT22;34730;50.894;6.052;2022-07-06T02:59:41;10.20;99.90
48920;DHT22;34730;50.894;6.052;2022-07-06T03:00:13;10.20;99.90
48920;DHT22;34730;50.894;6.052;2022-07-06T03:00:45;10.20;99.90
48920;DHT22;34730;50.894;6.052;2022-07-06T03:01:18;10.20;99.90
48920;DHT22;34730;50.894;6.052;2022-07-06T03:01:49;10.20;99.90
48920;DHT22;34730;50.894;6.052;2022-07-06T03:02:23;10.20;99.90
48920;DHT22;34730;50.894;6.052;2022-07-06T03:02:57;10.20;99.90
48920;DHT22;34730;50.894;6.052;2022-07-06T03:03:28;10.20;99.90
48920;DHT22;34730;50.894;6.052;2022-07-06T03:04:01;10.20;99.90
48920;DHT22;34730;50.894;6.052;2022-07-06T03:04:32;10.20;99.90
48920;DHT22;34730;50.894;6.052;2022-07-06T03:05:03;10.20;99.90
48920;DHT22;34730;50.894;6.052;2022-07-06T03:05:34;10.20;99.90
48920;DHT22;34730;50.894;6.052;2022-07-06T03:06:08;10.20;99.90
48920;DHT22;34730;50.894;6.052;2022-07-06T03:06:38;10.20;99.90
48920;DHT22;34730;50.894;6.052;2022-07-06T03:07:12;10.20;99.90
48920;DHT22;34730;50.894;6.052;2022-07-06T03:07:45;10.10;99.90
48920;DHT22;34730;50.894;6.052;2022-07-06T03:08:16;10.10;99.90
48920;DHT22;34730;50.894;6.052;2022-07-06T03:08:47;10.10;99.90
48920;DHT22;34730;50.894;6.052;2022-07-06T03:09:21;10.10;99.90
48920;DHT22;34730;50.894;6.052;2022-07-06T03:09:52;10.10;99.90
48920;DHT22;34730;50.894;6.052;2022-07-06T03:10:23;10.10;99.90
48920;DHT22;34730;50.894;6.052;2022-07-06T03:10:54;10.10;99.90
48920;DHT22;34730;50.894;6.052;2022-07-06T03:11:26;10.10;99.90
48920;DHT22;34730;50.894;6.052;2022-07-06T03:11:57;10.10;99.90
48920;DHT22;34730;50.894;6.052;2022-07-06T03:12:29;10.10;99.90
48920;DHT22;34730;50.894;6.052;2022-07-06T03:13:00;10.10;99.90
48920;DHT22;34730;50.894;6.052;2022-07-06T03:13:31;10.10;99.90
48920;DHT22;34730;50.894;6.052;2022-07-06T03:14:03;10.10;99.90
48920;DHT22;34730;50.894;6.052;2022-07-06T03:14:37;10.10;99.90
48920;DHT22;34730;50.894;6.052;2022-07-06T03:15:08;10.10;99.90
48920;DHT22;34730;50.894;6.052;2022-07-06T03:15:42;10.10;99.90
48920;DHT22;34730;50.894;6.052;2022-07-06T03:16:15;10.10;99.90
48920;DHT22;34730;50.894;6.052;2022-07-06T03:16:46;10.10;99.90
48920;DHT22;34730;50.894;6.052;2022-07-06T03:17:17;10.10;99.90
48920;DHT22;34730;50.894;6.052;2022-07-06T03:17:50;10.10;99.90
48920;DHT22;34730;50.894;6.052;2022-07-06T03:18:21;10.00;99.90
48920;DHT22;34730;50.894;6.052;2022-07-06T03:18:52;10.00;99.90
48920;DHT22;34730;50.894;6.052;2022-07-06T03:19:23;10.00;99.90
48920;DHT22;34730;50.894;6.052;2022-07-06T03:19:56;10.00;99.90
48920;DHT22;34730;50.894;6.052;2022-07-06T03:20:27;10.00;99.90
48920;DHT22;34730;50.894;6.052;2022-07-06T03:20:59;10.00;99.90
48920;DHT22;34730;50.894;6.052;2022-07-06T03:21:31;10.00;99.90